createdAt,value
2022-10-06T00:00:36.801Z,5.45
2022-10-06T00:03:03.688Z,5.07
2022-10-06T00:05:30.014Z,5.15
2022-10-06T00:07:56.496Z,5.55
2022-10-06T00:10:23.010Z,5.22
2022-10-06T00:12:50.788Z,5.05
2022-10-06T00:15:27.437Z,5.65
2022-10-06T00:17:53.964Z,5.20
2022-10-06T00:20:20.473Z,5.63
2022-10-06T00:22:47.860Z,5.78
2022-10-06T00:25:15.445Z,5.63
2022-10-06T00:27:43.045Z,5.20
2022-10-06T00:30:11.378Z,5.35
2022-10-06T00:32:38.368Z,5.22
2022-10-06T00:35:05.101Z,5.72
2022-10-06T00:37:35.608Z,5.88
2022-10-06T00:40:02.207Z,5.15
2022-10-06T00:42:33.308Z,4.93
2022-10-06T00:45:04.215Z,5.57
2022-10-06T00:47:32.085Z,5.80
2022-10-06T00:49:59.092Z,5.53
2022-10-06T00:52:28.099Z,6.38
2022-10-06T00:54:57.021Z,6.05
2022-10-06T00:57:23.650Z,6.43
2022-10-06T00:59:50.060Z,6.72
2022-10-06T01:02:32.014Z,6.50
2022-10-06T01:05:00.772Z,7.00
2022-10-06T01:07:28.417Z,6.45
2022-10-06T01:09:55.711Z,7.03
2022-10-06T01:12:22.388Z,7.03
2022-10-06T01:14:48.809Z,6.78
2022-10-06T01:17:41.389Z,6.82
2022-10-06T01:20:09.677Z,6.95
2022-10-06T01:22:37.234Z,7.10
2022-10-06T01:25:05.367Z,6.95
2022-10-06T01:27:32.675Z,6.35
2022-10-06T01:29:59.570Z,7.03
2022-10-06T01:32:27.600Z,6.00
2022-10-06T01:34:53.937Z,7.00
2022-10-06T01:37:20.265Z,6.40
2022-10-06T01:39:46.597Z,6.93
2022-10-06T01:42:12.925Z,6.40
2022-10-06T01:44:39.635Z,6.40
2022-10-06T01:47:06.599Z,6.55
2022-10-06T01:49:32.971Z,4.85
2022-10-06T01:51:59.418Z,6.93
2022-10-06T01:54:25.743Z,6.88
2022-10-06T01:56:52.085Z,6.22
2022-10-06T01:59:18.934Z,5.90
2022-10-06T02:01:45.331Z,7.00
2022-10-06T02:04:11.721Z,6.18
2022-10-06T02:06:38.758Z,6.50
2022-10-06T02:09:05.348Z,5.78
2022-10-06T02:11:31.761Z,6.18
2022-10-06T02:13:58.084Z,5.53
2022-10-06T02:16:24.490Z,6.10
2022-10-06T02:18:50.853Z,5.60
2022-10-06T02:21:18.111Z,5.55
2022-10-06T02:23:44.594Z,5.45
2022-10-06T02:26:11.492Z,5.20
2022-10-06T02:28:38.055Z,5.88
2022-10-06T02:31:08.923Z,6.15
2022-10-06T02:33:36.152Z,5.30
2022-10-06T02:36:02.709Z,5.00
2022-10-06T02:38:30.382Z,5.40
2022-10-06T02:40:57.600Z,5.10
2022-10-06T02:43:28.959Z,5.18
2022-10-06T02:45:59.631Z,4.00
2022-10-06T02:48:26.809Z,5.20
2022-10-06T02:50:57.511Z,5.10
2022-10-06T02:53:25.739Z,5.00
2022-10-06T02:56:01.743Z,5.38
2022-10-06T02:58:30.818Z,5.03
2022-10-06T03:01:01.725Z,4.40
2022-10-06T03:03:29.930Z,4.80
2022-10-06T03:06:04.270Z,4.50
2022-10-06T03:08:31.256Z,5.47
2022-10-06T03:11:04.391Z,5.30
2022-10-06T03:13:31.085Z,5.05
2022-10-06T03:15:58.065Z,5.32
2022-10-06T03:18:24.888Z,5.10
2022-10-06T03:20:51.809Z,5.20
2022-10-06T03:23:18.179Z,4.80
2022-10-06T03:25:44.575Z,4.75
2022-10-06T03:28:10.963Z,4.97
2022-10-06T03:30:37.371Z,4.78
2022-10-06T03:33:03.743Z,4.65
2022-10-06T03:35:30.127Z,4.38
2022-10-06T03:37:58.727Z,4.40
2022-10-06T03:40:25.117Z,4.88
2022-10-06T03:42:51.444Z,3.97
2022-10-06T03:45:17.972Z,4.10
2022-10-06T03:47:44.404Z,4.68
2022-10-06T03:50:10.740Z,4.55
2022-10-06T03:52:37.143Z,4.85
2022-10-06T03:55:03.701Z,4.55
2022-10-06T03:57:30.151Z,4.32
2022-10-06T03:59:59.862Z,4.63
2022-10-06T04:02:26.302Z,4.55
2022-10-06T04:04:52.664Z,4.70
2022-10-06T04:07:18.979Z,4.60
2022-10-06T04:09:45.335Z,4.60
2022-10-06T04:12:11.659Z,4.38
2022-10-06T04:14:38.000Z,4.70
2022-10-06T04:17:04.343Z,5.18
2022-10-06T04:19:30.739Z,4.60
2022-10-06T04:21:57.102Z,4.25
2022-10-06T04:24:23.478Z,4.70
2022-10-06T04:26:50.169Z,4.45
2022-10-06T04:29:16.575Z,4.75
2022-10-06T04:31:43.068Z,4.65
2022-10-06T04:34:10.870Z,5.10
2022-10-06T04:36:39.523Z,4.40
2022-10-06T04:39:06.062Z,4.57
2022-10-06T04:41:34.537Z,5.10
2022-10-06T04:44:01.297Z,4.50
2022-10-06T04:46:42.811Z,4.93
2022-10-06T04:49:14.625Z,4.65
2022-10-06T04:51:44.457Z,5.15
2022-10-06T04:54:10.893Z,4.63
2022-10-06T04:56:37.217Z,4.90
2022-10-06T04:59:03.740Z,5.15
2022-10-06T05:01:31.755Z,5.65
2022-10-06T05:03:59.317Z,5.50
2022-10-06T05:06:27.468Z,5.32
2022-10-06T05:08:54.889Z,5.03
2022-10-06T05:11:25.613Z,5.13
2022-10-06T05:13:54.877Z,5.45
2022-10-06T05:16:22.138Z,5.40
2022-10-06T05:18:48.622Z,5.82
2022-10-06T05:21:19.941Z,5.20
2022-10-06T05:23:46.814Z,5.22
2022-10-06T05:26:14.485Z,5.53
2022-10-06T05:28:41.225Z,5.00
2022-10-06T05:31:11.070Z,5.25
2022-10-06T05:33:38.341Z,5.30
2022-10-06T05:36:05.950Z,5.35
2022-10-06T05:38:33.325Z,5.25
2022-10-06T05:41:06.395Z,5.10
2022-10-06T05:43:33.469Z,4.70
2022-10-06T05:46:01.581Z,4.60
2022-10-06T05:48:28.871Z,5.03
2022-10-06T05:51:03.302Z,5.20
2022-10-06T05:53:30.807Z,5.40
2022-10-06T05:56:04.533Z,5.20
2022-10-06T05:58:31.635Z,5.07
2022-10-06T06:01:05.988Z,5.22
2022-10-06T06:03:32.425Z,5.75
2022-10-06T06:05:58.819Z,4.88
2022-10-06T06:08:25.171Z,5.07
2022-10-06T06:10:51.654Z,5.03
2022-10-06T06:13:21.681Z,4.65
2022-10-06T06:16:04.535Z,4.82
2022-10-06T06:18:32.593Z,4.20
2022-10-06T06:21:00.298Z,4.95
2022-10-06T06:23:31.080Z,4.82
2022-10-06T06:26:22.401Z,4.70
2022-10-06T06:28:50.912Z,4.05
2022-10-06T06:31:21.073Z,4.53
2022-10-06T06:33:48.137Z,4.43
2022-10-06T06:36:15.970Z,4.07
2022-10-06T06:38:43.455Z,4.40
2022-10-06T06:41:13.675Z,4.28
2022-10-06T06:43:40.092Z,4.15
2022-10-06T06:46:06.582Z,4.03
2022-10-06T06:48:33.485Z,4.18
2022-10-06T06:51:00.028Z,4.30
2022-10-06T06:53:26.431Z,4.40
2022-10-06T06:55:52.879Z,4.20
2022-10-06T06:58:19.986Z,3.92
2022-10-06T07:00:46.914Z,3.95
2022-10-06T07:03:14.208Z,4.28
2022-10-06T07:05:40.687Z,3.88
2022-10-06T07:08:10.869Z,3.65
2022-10-06T07:10:37.665Z,4.20
2022-10-06T07:13:04.794Z,4.80
2022-10-06T07:15:50.073Z,4.50
2022-10-06T07:18:35.040Z,4.68
2022-10-06T07:21:20.017Z,4.65
2022-10-06T07:24:07.121Z,4.27
2022-10-06T07:26:33.498Z,4.40
2022-10-06T07:29:02.547Z,4.00
2022-10-06T07:31:33.738Z,4.13
2022-10-06T07:34:02.619Z,4.28
2022-10-06T07:36:29.059Z,4.43
2022-10-06T07:38:55.595Z,4.22
2022-10-06T07:41:22.554Z,4.95
2022-10-06T07:43:49.078Z,4.18
2022-10-06T07:46:15.611Z,4.07
2022-10-06T07:48:43.185Z,4.35
2022-10-06T07:51:16.928Z,4.20
2022-10-06T07:53:46.817Z,4.00
2022-10-06T07:56:15.848Z,4.07
2022-10-06T07:58:44.127Z,4.20
2022-10-06T08:01:11.811Z,3.90
2022-10-06T08:03:39.018Z,3.80
2022-10-06T08:06:05.909Z,3.83
2022-10-06T08:08:36.987Z,3.75
2022-10-06T08:11:04.517Z,3.70
2022-10-06T08:13:32.296Z,4.10
2022-10-06T08:16:05.551Z,4.07
2022-10-06T08:18:45.836Z,4.57
2022-10-06T08:21:17.265Z,4.28
2022-10-06T08:23:44.594Z,4.07
2022-10-06T08:26:11.762Z,4.05
2022-10-06T08:28:38.865Z,4.13
2022-10-06T08:31:11.738Z,3.67
2022-10-06T08:33:41.015Z,3.75
2022-10-06T08:36:08.743Z,3.30
2022-10-06T08:38:36.940Z,3.85
2022-10-06T08:41:17.493Z,3.50
2022-10-06T08:43:46.961Z,3.80
2022-10-06T08:46:17.854Z,3.55
2022-10-06T08:48:46.343Z,3.72
2022-10-06T08:51:19.812Z,3.70
2022-10-06T08:53:52.103Z,3.40
2022-10-06T08:56:24.861Z,3.47
2022-10-06T08:58:56.049Z,3.33
2022-10-06T09:01:27.232Z,3.30
2022-10-06T09:03:54.803Z,3.28
2022-10-06T09:06:38.131Z,3.50
2022-10-06T09:09:21.363Z,3.17
2022-10-06T09:11:54.778Z,3.42
2022-10-06T09:14:33.234Z,3.40
2022-10-06T09:17:03.179Z,3.70
2022-10-06T09:19:38.986Z,3.22
2022-10-06T09:22:06.743Z,3.60
2022-10-06T09:24:38.054Z,3.30
2022-10-06T09:27:17.553Z,3.55
2022-10-06T09:29:44.145Z,3.33
2022-10-06T09:32:11.009Z,3.67
2022-10-06T09:34:39.835Z,3.97
2022-10-06T09:37:11.137Z,3.78
2022-10-06T09:39:38.934Z,3.45
2022-10-06T09:42:25.714Z,3.58
2022-10-06T09:45:10.943Z,3.67
2022-10-06T09:47:45.063Z,3.78
2022-10-06T09:50:16.315Z,3.78
2022-10-06T09:53:06.213Z,3.78
2022-10-06T09:55:38.460Z,3.90
2022-10-06T09:58:16.634Z,3.90
2022-10-06T10:01:15.881Z,3.97
2022-10-06T10:09:24.375Z,4.45
2022-10-06T10:12:19.226Z,4.05
2022-10-06T10:14:45.658Z,3.50
2022-10-06T10:17:24.051Z,3.90
2022-10-06T10:19:53.832Z,3.40
2022-10-06T10:22:39.958Z,3.55
2022-10-06T10:25:27.228Z,3.30
2022-10-06T10:28:17.349Z,3.40
2022-10-06T10:31:02.677Z,3.40
2022-10-06T10:33:34.887Z,3.78
2022-10-06T10:36:02.641Z,3.42
2022-10-06T10:38:30.740Z,3.10
2022-10-06T10:41:04.588Z,2.92
2022-10-06T10:43:33.075Z,2.90
2022-10-06T10:46:11.852Z,3.65
2022-10-06T10:48:41.741Z,2.60
2022-10-06T10:51:23.188Z,2.60
2022-10-06T10:53:51.517Z,2.70
2022-10-06T10:56:19.806Z,2.67
2022-10-06T10:58:49.320Z,2.38
2022-10-06T11:01:32.162Z,2.60
2022-10-06T11:03:59.090Z,2.20
2022-10-06T11:06:40.234Z,2.22
2022-10-06T11:09:22.520Z,2.30
2022-10-06T11:12:03.579Z,2.03
2022-10-06T11:14:33.144Z,1.92
2022-10-06T11:17:05.620Z,1.92
2022-10-06T11:19:47.887Z,2.80
2022-10-06T11:22:16.555Z,2.22
2022-10-06T11:25:13.817Z,2.20
2022-10-06T11:27:45.493Z,2.22
2022-10-06T11:30:15.736Z,2.78
2022-10-06T11:32:47.226Z,2.30
2022-10-06T11:35:18.406Z,1.95
2022-10-06T11:37:56.143Z,1.92
2022-10-06T11:40:36.680Z,2.00
2022-10-06T11:43:06.344Z,2.13
2022-10-06T11:45:44.387Z,1.95
2022-10-06T11:48:21.113Z,2.20
2022-10-06T11:50:51.176Z,1.90
2022-10-06T11:53:26.214Z,1.92
2022-10-06T11:56:11.009Z,1.95
2022-10-06T11:58:52.171Z,1.98
2022-10-06T12:01:38.103Z,1.60
2022-10-06T12:06:47.425Z,2.05
2022-10-06T12:09:26.208Z,1.48
2022-10-06T12:11:56.615Z,1.70
2022-10-06T12:17:25.047Z,2.17
2022-10-06T12:20:10.505Z,1.92
2022-10-06T12:22:50.836Z,2.15
2022-10-06T12:25:22.421Z,2.20
2022-10-06T12:28:06.208Z,2.15
2022-10-06T12:30:56.322Z,2.55
2022-10-06T12:33:34.535Z,2.03
2022-10-06T12:36:04.957Z,2.30
2022-10-06T12:38:31.351Z,2.22
2022-10-06T12:40:57.938Z,2.00
2022-10-06T12:43:24.348Z,1.98
2022-10-06T12:45:57.205Z,2.20
2022-10-06T12:48:45.414Z,1.98
2022-10-06T12:54:10.249Z,1.80
2022-10-06T12:56:38.243Z,2.17
2022-10-06T12:59:23.658Z,1.95
2022-10-06T13:01:51.000Z,2.00
2022-10-06T13:04:34.676Z,1.80
2022-10-06T13:07:10.672Z,1.80
2022-10-06T13:09:37.485Z,2.03
2022-10-06T13:12:36.278Z,2.10
2022-10-06T13:15:17.926Z,2.00
2022-10-06T13:18:11.029Z,2.00
2022-10-06T13:20:42.433Z,1.90
2022-10-06T13:23:10.477Z,2.10
2022-10-06T13:25:42.987Z,2.20
2022-10-06T13:28:22.059Z,1.85
2022-10-06T13:30:52.618Z,1.98
2022-10-06T13:33:20.754Z,2.15
2022-10-06T13:35:49.714Z,2.17
2022-10-06T13:38:16.083Z,2.10
2022-10-06T13:40:44.893Z,2.15
2022-10-06T13:43:16.190Z,2.15
2022-10-06T13:45:43.345Z,2.20
2022-10-06T13:48:17.285Z,2.10
2022-10-06T13:50:47.809Z,2.03
2022-10-06T13:53:25.708Z,2.10
2022-10-06T13:55:54.723Z,2.13
2022-10-06T13:58:24.383Z,2.00
2022-10-06T14:00:52.233Z,2.00
2022-10-06T14:03:26.151Z,2.00
2022-10-06T14:06:05.018Z,1.95
2022-10-06T14:08:31.444Z,2.17
2022-10-06T14:10:59.365Z,2.00
2022-10-06T14:13:48.786Z,2.60
2022-10-06T14:16:33.414Z,2.63
2022-10-06T14:19:02.592Z,3.20
2022-10-06T14:21:32.050Z,2.80
2022-10-06T14:24:06.176Z,2.88
2022-10-06T14:26:37.968Z,2.40
2022-10-06T14:29:04.607Z,2.20
2022-10-06T14:31:34.299Z,2.50
2022-10-06T14:34:01.438Z,2.53
2022-10-06T14:36:37.314Z,2.30
2022-10-06T14:41:32.465Z,2.47
2022-10-06T14:44:06.752Z,2.13
2022-10-06T14:46:33.633Z,2.10
2022-10-06T14:49:00.611Z,2.20
2022-10-06T14:51:27.519Z,2.03
2022-10-06T14:53:55.270Z,2.00
2022-10-06T14:56:23.091Z,2.17
2022-10-06T14:58:50.514Z,2.13
2022-10-06T15:01:18.148Z,2.38
2022-10-06T15:03:51.114Z,2.55
2022-10-06T15:06:36.215Z,2.13
2022-10-06T15:09:03.584Z,2.30
2022-10-06T15:11:30.094Z,2.65
2022-10-06T15:13:58.721Z,2.45
2022-10-06T15:16:29.773Z,2.40
2022-10-06T15:18:56.512Z,2.30
2022-10-06T15:21:23.899Z,2.55
2022-10-06T15:23:57.856Z,2.38
2022-10-06T15:26:43.347Z,2.30
2022-10-06T15:29:10.274Z,2.60
2022-10-06T15:31:38.611Z,2.50
2022-10-06T15:34:07.545Z,2.50
2022-10-06T15:36:36.388Z,2.38
2022-10-06T15:39:10.591Z,2.50
2022-10-06T15:41:37.786Z,2.92
2022-10-06T15:44:05.121Z,2.95
2022-10-06T15:46:34.332Z,2.30
2022-10-06T15:49:02.528Z,2.75
2022-10-06T15:51:30.244Z,2.33
2022-10-06T15:53:58.426Z,2.47
2022-10-06T15:56:25.988Z,2.53
2022-10-06T15:58:52.427Z,2.72
2022-10-06T16:01:26.210Z,2.70
2022-10-06T16:03:53.405Z,2.70
2022-10-06T16:06:30.643Z,2.75
2022-10-06T16:08:56.963Z,2.95
2022-10-06T16:11:23.317Z,2.83
2022-10-06T16:13:49.757Z,3.20
2022-10-06T16:16:16.127Z,3.08
2022-10-06T16:18:42.537Z,2.92
2022-10-06T16:21:08.881Z,3.15
2022-10-06T16:23:35.359Z,3.00
2022-10-06T16:26:02.085Z,3.10
2022-10-06T16:28:29.516Z,3.40
2022-10-06T16:30:56.164Z,3.55
2022-10-06T16:33:22.595Z,3.83
2022-10-06T16:35:58.886Z,3.40
2022-10-06T16:38:26.060Z,4.47
2022-10-06T16:40:56.848Z,3.70
2022-10-06T16:43:43.509Z,3.53
2022-10-06T16:46:11.465Z,3.15
2022-10-06T16:48:39.319Z,3.78
2022-10-06T16:51:16.557Z,3.58
2022-10-06T16:53:44.277Z,3.58
2022-10-06T16:56:13.950Z,3.58
2022-10-06T16:58:41.543Z,3.25
2022-10-06T17:01:08.695Z,3.47
2022-10-06T17:03:35.492Z,3.28
2022-10-06T17:06:03.331Z,3.70
2022-10-06T17:08:29.860Z,3.50
2022-10-06T17:11:00.723Z,3.80
2022-10-06T17:13:27.112Z,4.22
2022-10-06T17:16:00.771Z,4.72
2022-10-06T17:18:27.229Z,4.60
2022-10-06T17:20:54.759Z,5.00
2022-10-06T17:23:21.144Z,5.20
2022-10-06T17:25:47.529Z,5.07
2022-10-06T17:28:16.685Z,5.15
2022-10-06T17:30:51.211Z,6.57
2022-10-06T17:33:17.555Z,8.23
2022-10-06T17:35:43.930Z,8.18
2022-10-06T17:38:11.683Z,7.63
2022-10-06T17:40:44.656Z,7.03
2022-10-06T17:43:11.040Z,7.45
2022-10-06T17:45:38.579Z,6.30
2022-10-06T17:48:06.442Z,6.38
2022-10-06T17:50:33.119Z,6.43
2022-10-06T17:52:59.507Z,6.05
2022-10-06T17:55:28.100Z,6.13
2022-10-06T17:57:58.450Z,6.25
2022-10-06T18:00:25.624Z,6.22
2022-10-06T18:02:55.922Z,5.75
2022-10-06T18:05:22.367Z,8.98
2022-10-06T18:07:48.691Z,13.52
2022-10-06T18:10:41.144Z,10.10
2022-10-06T18:13:07.487Z,7.75
2022-10-06T18:15:37.167Z,7.93
2022-10-06T18:18:04.636Z,8.07
2022-10-06T18:20:37.876Z,9.30
2022-10-06T18:23:04.217Z,8.20
2022-10-06T18:25:30.728Z,7.30
2022-10-06T18:27:57.218Z,11.40
2022-10-06T18:30:29.074Z,9.50
2022-10-06T18:38:31.928Z,7.47
2022-10-06T18:40:59.969Z,7.70
2022-10-06T18:43:26.683Z,6.63
2022-10-06T18:46:11.767Z,5.78
2022-10-06T18:48:57.644Z,8.85
2022-10-06T18:51:34.479Z,8.10
2022-10-06T18:54:02.713Z,7.10
2022-10-06T18:56:31.436Z,8.77
2022-10-06T18:58:59.163Z,9.25
2022-10-06T19:01:26.356Z,8.52
2022-10-06T19:03:54.949Z,9.43
2022-10-06T19:06:21.883Z,8.48
2022-10-06T19:08:57.242Z,8.82
2022-10-06T19:11:41.979Z,8.73
2022-10-06T19:14:09.103Z,9.48
2022-10-06T19:16:35.919Z,8.82
2022-10-06T19:19:03.160Z,8.38
2022-10-06T19:21:31.463Z,9.05
2022-10-06T19:24:01.096Z,8.60
2022-10-06T19:26:27.472Z,7.82
2022-10-06T19:28:53.880Z,7.78
2022-10-06T19:31:21.171Z,6.93
2022-10-06T19:33:48.932Z,9.00
2022-10-06T19:36:16.986Z,7.60
2022-10-06T19:38:44.228Z,7.18
2022-10-06T19:41:29.087Z,8.05
2022-10-06T19:43:55.585Z,9.35
2022-10-06T19:46:28.471Z,14.63
2022-10-06T19:48:56.945Z,13.48
2022-10-06T19:51:24.030Z,13.13
2022-10-06T19:53:51.407Z,11.20
2022-10-06T19:56:18.954Z,10.48
2022-10-06T19:58:45.414Z,11.25
2022-10-06T20:01:12.157Z,9.15
2022-10-06T20:03:39.889Z,9.68
2022-10-06T20:06:07.961Z,9.20
2022-10-06T20:08:35.524Z,9.60
2022-10-06T20:11:03.577Z,9.90
2022-10-06T20:13:32.417Z,11.15
2022-10-06T20:16:02.770Z,12.05
2022-10-06T20:18:31.613Z,11.00
2022-10-06T20:20:59.153Z,12.07
2022-10-06T20:23:25.762Z,10.75
2022-10-06T20:25:52.924Z,14.38
2022-10-06T20:28:19.366Z,13.43
2022-10-06T20:30:50.227Z,13.05
2022-10-06T20:33:16.716Z,15.25
2022-10-06T20:35:43.425Z,17.67
2022-10-06T20:38:09.800Z,16.40
2022-10-06T20:40:47.172Z,18.45
2022-10-06T20:43:13.919Z,19.30
2022-10-06T20:45:40.867Z,11.77
2022-10-06T20:48:07.328Z,16.73
2022-10-06T20:50:34.430Z,9.68
2022-10-06T20:53:00.919Z,15.27
2022-10-06T20:55:27.352Z,16.98
2022-10-06T20:57:55.208Z,16.30
2022-10-06T21:00:24.267Z,15.93
2022-10-06T21:02:50.929Z,12.82
2022-10-06T21:05:17.445Z,12.57
2022-10-06T21:07:45.849Z,13.38
2022-10-06T21:10:12.663Z,10.52
2022-10-06T21:12:39.328Z,12.95
2022-10-06T21:15:06.025Z,12.15
2022-10-06T21:17:32.464Z,17.92
2022-10-06T21:19:58.933Z,16.75
2022-10-06T21:22:31.382Z,13.43
2022-10-06T21:24:58.026Z,14.00
2022-10-06T21:27:24.645Z,12.25
2022-10-06T21:29:51.320Z,12.43
2022-10-06T21:32:19.085Z,11.98
2022-10-06T21:34:45.929Z,14.02
2022-10-06T21:37:13.883Z,15.88
2022-10-06T21:39:44.548Z,16.33
2022-10-06T21:42:11.102Z,14.80
2022-10-06T21:44:37.592Z,14.32
2022-10-06T21:47:04.132Z,13.05
2022-10-06T21:49:31.439Z,12.65
2022-10-06T21:52:04.759Z,12.15
2022-10-06T21:54:31.594Z,10.60
2022-10-06T21:56:59.194Z,10.02
2022-10-06T21:59:25.604Z,11.07
2022-10-06T22:01:52.133Z,10.88
2022-10-06T22:04:18.694Z,11.95
2022-10-06T22:06:45.669Z,11.43
2022-10-06T22:09:14.424Z,11.98
2022-10-06T22:11:42.453Z,11.80
2022-10-06T22:14:10.974Z,10.80
2022-10-06T22:16:38.264Z,10.50
2022-10-06T22:19:05.708Z,11.15
2022-10-06T22:21:33.043Z,12.60
2022-10-06T22:24:04.167Z,20.40
2022-10-06T22:26:31.241Z,30.60
2022-10-06T22:28:58.658Z,21.13
2022-10-06T22:31:26.420Z,17.17
2022-10-06T22:33:57.011Z,12.85
2022-10-06T22:36:23.896Z,15.82
2022-10-06T22:38:50.578Z,18.40
2022-10-06T22:41:17.444Z,38.97
2022-10-06T22:43:43.989Z,15.73
2022-10-06T22:46:11.398Z,16.60
2022-10-06T22:48:39.212Z,15.80
2022-10-06T22:51:06.166Z,19.45
2022-10-06T22:53:32.725Z,14.73
2022-10-06T22:55:59.823Z,12.45
2022-10-06T22:58:26.445Z,13.57
2022-10-06T23:00:53.089Z,13.20
2022-10-06T23:03:20.159Z,13.13
2022-10-06T23:05:59.494Z,12.52
2022-10-06T23:08:31.256Z,11.95
2022-10-06T23:11:05.492Z,11.63
2022-10-06T23:13:31.949Z,11.85
2022-10-06T23:16:07.857Z,11.68
2022-10-06T23:21:05.884Z,11.27
2022-10-06T23:23:32.537Z,10.27
2022-10-06T23:26:10.601Z,12.85
2022-10-06T23:28:37.474Z,14.02
2022-10-06T23:31:04.717Z,14.88
2022-10-06T23:33:31.729Z,12.73
2022-10-06T23:35:58.934Z,11.63
2022-10-06T23:38:25.611Z,12.98
2022-10-06T23:40:52.144Z,10.82
2022-10-06T23:43:18.838Z,11.48
2022-10-06T23:45:45.397Z,10.73
2022-10-06T23:48:12.120Z,10.57
2022-10-06T23:50:38.769Z,11.15
2022-10-06T23:53:05.263Z,13.18
2022-10-06T23:55:31.788Z,12.40
2022-10-06T23:57:58.574Z,12.77
